Solsberry, Indiana
Current Conditions -  °F | °C
As of 9:53 PM on Tuesday 21 Oct 2014 (Local Time) from KBMG Reporting Station
Broken Clouds Broken Clouds  
Wind Chill: 47°   Ceiling: 3300
Heat Index: 47°   Visibility: 10mi
Dew Point: 42°   Wind: 3mph
Humidity: 83%   Direction: 340°NNW
Pressure: 30.17"   Gusts: NA
Location:  39.08°N, 86.76°W
Report Text: KBMG 220153Z AUTO 34003KT 10SM BKN033 08/06 A3017 RMK AO2 SLP219 T00830056 $
Loading
Personal Weather Stations






























Interactive Weather Map
Tropical Storm Tracking
New forecast layout! Learn more

10-Day Weather Forecast

Advertisements
Track Severe Weather on mobile